TimeEDT,TemperatureF,Dew PointF,Humidity,Sea Level PressureIn,VisibilityMPH,Wind Direction,Wind SpeedMPH,Gust SpeedMPH,PrecipitationIn,Events,Conditions,WindDirDegrees,DateUTC
12:15 AM,56.5,52.7,87,29.98,10.0,Calm,Calm,-,N/A,,Clear,0,2013-07-11 04:15:00
12:34 AM,56.5,53.1,88,29.99,10.0,Calm,Calm,-,N/A,,Clear,0,2013-07-11 04:34:00
12:55 AM,56.3,53.1,89,29.99,10.0,Calm,Calm,-,N/A,,Clear,0,2013-07-11 04:55:00
1:15 AM,54.0,50.9,89,29.99,10.0,Calm,Calm,-,N/A,,Clear,0,2013-07-11 05:15:00
1:34 AM,54.0,51.1,90,29.99,10.0,Calm,Calm,-,N/A,,Clear,0,2013-07-11 05:34:00
1:55 AM,51.4,48.6,90,30.00,10.0,Calm,Calm,-,N/A,,Clear,0,2013-07-11 05:55:00
2:14 AM,54.0,51.4,91,30.00,10.0,Calm,Calm,-,N/A,,Scattered Clouds,0,2013-07-11 06:14:00
2:35 AM,52.0,49.3,90,30.00,2.5,Calm,Calm,-,N/A,,Scattered Clouds,0,2013-07-11 06:35:00
2:55 AM,51.6,48.9,90,30.00,1.5,Calm,Calm,-,N/A,,Scattered Clouds,0,2013-07-11 06:55:00
3:14 AM,51.4,48.7,90,30.00,1.5,Calm,Calm,-,N/A,,Mist,0,2013-07-11 07:14:00
3:35 AM,51.4,48.9,91,30.01,10.0,Calm,Calm,-,N/A,,Clear,0,2013-07-11 07:35:00
3:55 AM,51.4,49.1,92,30.01,10.0,Calm,Calm,-,N/A,,Clear,0,2013-07-11 07:55:00
4:14 AM,51.4,48.7,90,30.01,10.0,Calm,Calm,-,N/A,,Scattered Clouds,0,2013-07-11 08:14:00
4:35 AM,51.4,48.7,90,30.02,1.5,Calm,Calm,-,N/A,,Mostly Cloudy,0,2013-07-11 08:35:00
4:55 AM,51.4,48.7,90,30.02,10.0,Calm,Calm,-,N/A,,Scattered Clouds,0,2013-07-11 08:55:00
5:14 AM,51.4,49.1,92,30.02,10.0,Calm,Calm,-,N/A,,Clear,0,2013-07-11 09:14:00
5:35 AM,51.4,49.1,92,30.02,10.0,Calm,Calm,-,N/A,,Clear,0,2013-07-11 09:35:00
5:55 AM,51.8,49.5,92,30.03,10.0,Calm,Calm,-,N/A,,Clear,0,2013-07-11 09:55:00
6:14 AM,51.4,49.1,92,30.03,10.0,Calm,Calm,-,N/A,,Scattered Clouds,0,2013-07-11 10:14:00
6:35 AM,51.8,49.3,91,30.03,7.0,Calm,Calm,-,N/A,,Scattered Clouds,0,2013-07-11 10:35:00
6:55 AM,51.4,49.1,92,30.03,10.0,Calm,Calm,-,N/A,,Clear,0,2013-07-11 10:55:00
7:14 AM,54.7,52.0,91,30.04,10.0,Calm,Calm,-,N/A,,Clear,0,2013-07-11 11:14:00
7:35 AM,56.7,53.8,90,30.04,10.0,Calm,Calm,-,N/A,,Clear,0,2013-07-11 11:35:00
7:55 AM,59.5,55.8,87,30.05,10.0,Calm,Calm,-,N/A,,Clear,0,2013-07-11 11:55:00
8:14 AM,62.8,56.7,80,30.05,10.0,WNW,4.6,-,N/A,,Clear,290,2013-07-11 12:14:00
8:35 AM,64.2,56.8,77,30.06,10.0,NW,6.9,-,N/A,,Clear,310,2013-07-11 12:35:00
8:55 AM,64.8,55.6,72,30.06,10.0,NNW,6.9,-,N/A,,Clear,340,2013-07-11 12:55:00
9:14 AM,65.5,55.9,71,30.06,10.0,NNW,5.8,-,N/A,,Clear,330,2013-07-11 13:14:00
9:35 AM,65.8,56.3,71,30.07,10.0,NW,6.9,-,N/A,,Clear,320,2013-07-11 13:35:00
9:55 AM,66.4,56.5,70,30.07,10.0,NW,4.6,-,N/A,,Clear,320,2013-07-11 13:55:00
10:14 AM,70.3,57.0,63,30.07,10.0,North,6.9,-,N/A,,Clear,350,2013-07-11 14:14:00
10:35 AM,71.6,57.0,60,30.08,10.0,NNW,5.8,-,N/A,,Scattered Clouds,340,2013-07-11 14:35:00
10:55 AM,71.6,55.6,57,30.08,10.0,North,8.1,-,N/A,,Scattered Clouds,360,2013-07-11 14:55:00
11:15 AM,71.6,54.5,55,30.08,10.0,NNW,11.5,16.1,N/A,,Scattered Clouds,340,2013-07-11 15:15:00
11:35 AM,71.6,54.3,54,30.08,10.0,NNW,12.7,17.3,N/A,,Clear,330,2013-07-11 15:35:00
11:54 AM,71.6,53.2,52,30.08,10.0,NNW,9.2,-,N/A,,Scattered Clouds,340,2013-07-11 15:54:00
12:15 PM,71.6,52.2,50,30.08,10.0,North,6.9,-,N/A,,Scattered Clouds,360,2013-07-11 16:15:00
12:35 PM,73.2,52.7,48,30.08,10.0,North,11.5,16.1,N/A,,Clear,10,2013-07-11 16:35:00
12:54 PM,72.3,51.6,48,30.08,10.0,North,8.1,-,N/A,,Clear,360,2013-07-11 16:54:00
1:15 PM,74.1,51.3,45,30.08,10.0,North,5.8,-,N/A,,Clear,350,2013-07-11 17:15:00
1:35 PM,75.7,52.7,45,30.08,10.0,NNW,9.2,-,N/A,,Clear,330,2013-07-11 17:35:00
1:54 PM,76.6,52.2,42,30.08,10.0,North,9.2,18.4,N/A,,Clear,350,2013-07-11 17:54:00
2:15 PM,76.5,51.3,41,30.08,10.0,NNW,8.1,17.3,N/A,,Clear,340,2013-07-11 18:15:00
2:35 PM,76.6,49.6,39,30.08,10.0,NNW,10.4,16.1,N/A,,Clear,330,2013-07-11 18:35:00
2:54 PM,76.6,47.3,35,30.08,10.0,NNE,6.9,-,N/A,,Clear,20,2013-07-11 18:54:00
3:15 PM,76.6,47.1,35,30.08,10.0,North,6.9,-,N/A,,Clear,360,2013-07-11 19:15:00
3:35 PM,76.6,49.1,38,30.08,10.0,NNW,4.6,16.1,N/A,,Clear,330,2013-07-11 19:35:00
3:55 PM,76.6,50.2,39,30.08,10.0,NNE,3.5,-,N/A,,Clear,30,2013-07-11 19:55:00
4:15 PM,76.6,50.2,39,30.08,10.0,North,8.1,-,N/A,,Clear,360,2013-07-11 20:15:00
4:34 PM,76.6,50.4,40,30.08,10.0,Calm,Calm,-,N/A,,Clear,0,2013-07-11 20:34:00
4:55 PM,76.6,51.4,41,30.08,10.0,NW,10.4,-,N/A,,Clear,310,2013-07-11 20:55:00
5:15 PM,76.6,52.5,43,30.08,10.0,North,5.8,-,N/A,,Clear,10,2013-07-11 21:15:00
5:34 PM,76.6,52.0,42,30.07,10.0,NW,8.1,-,N/A,,Clear,320,2013-07-11 21:34:00
5:55 PM,76.6,52.7,43,30.07,10.0,NW,5.8,-,N/A,,Clear,310,2013-07-11 21:55:00
6:15 PM,76.6,52.3,43,30.07,10.0,North,6.9,-,N/A,,Clear,10,2013-07-11 22:15:00
6:34 PM,76.6,54.0,45,30.07,10.0,North,5.8,-,N/A,,Clear,360,2013-07-11 22:34:00
6:55 PM,75.7,54.3,47,30.08,10.0,NW,5.8,-,N/A,,Clear,320,2013-07-11 22:55:00
7:15 PM,74.3,53.8,49,30.08,10.0,North,3.5,-,N/A,,Clear,360,2013-07-11 23:15:00
7:34 PM,74.3,54.1,49,30.08,10.0,North,5.8,-,N/A,,Clear,360,2013-07-11 23:34:00
7:55 PM,72.9,53.8,51,30.08,10.0,North,5.8,-,N/A,,Clear,360,2013-07-11 23:55:00
8:15 PM,71.6,54.0,54,30.08,10.0,North,3.5,-,N/A,,Clear,350,2013-07-12 00:15:00
8:34 PM,71.6,54.1,54,30.08,10.0,NNW,4.6,-,N/A,,Clear,340,2013-07-12 00:34:00
8:55 PM,70.3,55.8,60,30.08,10.0,NNW,5.8,-,N/A,,Clear,330,2013-07-12 00:55:00
9:15 PM,66.6,54.1,64,30.08,10.0,Calm,Calm,-,N/A,,Clear,0,2013-07-12 01:15:00
9:34 PM,64.0,54.1,70,30.08,10.0,NW,3.5,-,N/A,,Clear,320,2013-07-12 01:34:00
9:55 PM,63.0,53.6,71,30.08,10.0,NNW,3.5,-,N/A,,Clear,340,2013-07-12 01:55:00
10:15 PM,62.8,54.0,73,30.09,10.0,Calm,Calm,-,N/A,,Clear,0,2013-07-12 02:15:00
10:34 PM,61.7,53.4,74,30.09,10.0,Calm,Calm,-,N/A,,Clear,0,2013-07-12 02:34:00
10:55 PM,61.7,54.1,76,30.09,10.0,Calm,Calm,-,N/A,,Clear,0,2013-07-12 02:55:00
11:14 PM,61.3,54.3,78,30.09,10.0,Calm,Calm,-,N/A,,Clear,0,2013-07-12 03:14:00
11:35 PM,59.0,53.2,81,30.10,10.0,Calm,Calm,-,N/A,,Clear,0,2013-07-12 03:35:00
11:55 PM,56.5,51.8,84,30.10,10.0,Calm,Calm,-,N/A,,Clear,0,2013-07-12 03:55:00